3AK0 weather

Wolfe Point Heliport
Ketchikan, Alaska, United States

Public forecast

Using degrees Fahrenheit for public forecast. Weather courtesy of forecast.io.

Closest aviation weather report (METAR) to Wolfe Point Heliport

Closest report is Ketchikan International Airport, 0.5 nm (0.8 km) SSW. Retrieved 2020/02/19 20:51 UTC (1 hour ago):

PAKT 192051Z 14017G23KT 3SM RA BR OVC015 02/02 A3011

Closest aviation forecast (TAF) to Wolfe Point Heliport

Closest forecast is Ketchikan International Airport, 0.5 nm (0.8 km) SSW. Retrieved 2020/02/19 18:45 UTC (3 hours ago):

TAF PAKT 191736Z 1918/2018 14020G30KT 6SM -RA BR OVC025 WS020/14045KT FM192100 14015G25KT 4SM RA BR OVC020 WS020/15035KT FM200200 16008KT P6SM VCSH OVC025 AMD LTD TO CLD VIS AND WIND 2006/2015